createdAt,value
2022-08-16T00:01:24.577Z,2.10
2022-08-16T00:03:54.011Z,2.50
2022-08-16T00:06:23.737Z,2.13
2022-08-16T00:08:52.545Z,2.30
2022-08-16T00:11:19.435Z,2.40
2022-08-16T00:13:53.065Z,2.65
2022-08-16T00:17:00.957Z,2.35
2022-08-16T00:19:08.106Z,2.45
2022-08-16T00:21:37.494Z,2.30
2022-08-16T00:24:06.442Z,2.90
2022-08-16T00:26:44.053Z,2.55
2022-08-16T00:29:15.532Z,2.60
2022-08-16T00:31:58.900Z,2.53
2022-08-16T00:34:43.772Z,2.60
2022-08-16T00:37:16.679Z,2.38
2022-08-16T00:39:46.932Z,2.80
2022-08-16T00:42:14.248Z,2.72
2022-08-16T00:45:01.186Z,2.67
2022-08-16T00:47:33.661Z,2.95
2022-08-16T00:50:00.253Z,2.75
2022-08-16T00:52:30.116Z,2.50
2022-08-16T00:54:58.057Z,2.72
2022-08-16T00:57:24.481Z,2.58
2022-08-16T00:59:58.872Z,2.53
2022-08-16T01:02:31.351Z,2.75
2022-08-16T01:05:10.541Z,2.58
2022-08-16T01:07:50.486Z,2.50
2022-08-16T01:10:18.091Z,2.70
2022-08-16T01:12:47.056Z,2.53
2022-08-16T01:15:14.583Z,2.63
2022-08-16T01:17:42.193Z,2.40
2022-08-16T01:20:24.001Z,2.95
2022-08-16T01:23:03.959Z,2.50
2022-08-16T01:25:39.974Z,2.95
2022-08-16T01:28:10.406Z,2.60
2022-08-16T01:30:50.830Z,2.67
2022-08-16T01:33:19.316Z,2.70
2022-08-16T01:35:52.771Z,2.50
2022-08-16T01:38:25.694Z,2.60
2022-08-16T01:41:06.552Z,2.63
2022-08-16T01:43:34.525Z,3.08
2022-08-16T01:46:37.471Z,2.70
2022-08-16T01:48:56.785Z,2.63
2022-08-16T01:51:24.822Z,2.50
2022-08-16T01:53:56.163Z,2.78
2022-08-16T01:56:26.397Z,2.78
2022-08-16T01:58:57.353Z,2.90
2022-08-16T02:01:29.133Z,2.80
2022-08-16T02:04:10.656Z,2.40
2022-08-16T02:06:45.938Z,2.88
2022-08-16T02:09:14.679Z,2.65
2022-08-16T02:11:52.972Z,2.50
2022-08-16T02:14:27.440Z,2.65
2022-08-16T02:16:56.499Z,3.10
2022-08-16T02:19:24.131Z,2.97
2022-08-16T02:22:33.562Z,2.83
2022-08-16T02:25:09.888Z,2.65
2022-08-16T02:27:37.133Z,2.70
2022-08-16T02:30:06.097Z,2.38
2022-08-16T02:32:49.903Z,2.60
2022-08-16T02:35:18.264Z,3.05
2022-08-16T02:37:55.175Z,2.50
2022-08-16T02:40:25.802Z,2.72
2022-08-16T02:42:53.810Z,2.65
2022-08-16T02:45:24.857Z,2.53
2022-08-16T02:48:00.362Z,2.60
2022-08-16T02:50:54.984Z,2.58
2022-08-16T02:53:23.378Z,2.90
2022-08-16T02:55:50.547Z,2.63
2022-08-16T02:58:19.505Z,3.45
2022-08-16T03:00:51.453Z,2.55
2022-08-16T03:03:19.341Z,2.78
2022-08-16T03:05:50.072Z,2.60
2022-08-16T03:08:49.693Z,3.08
2022-08-16T03:11:16.472Z,2.85
2022-08-16T03:13:56.393Z,2.50
2022-08-16T03:16:38.296Z,2.55
2022-08-16T03:19:09.257Z,2.28
2022-08-16T03:21:38.264Z,2.72
2022-08-16T03:24:28.250Z,2.50
2022-08-16T03:26:58.130Z,2.08
2022-08-16T03:29:29.866Z,2.70
2022-08-16T03:31:59.654Z,2.33
2022-08-16T03:34:28.481Z,2.78
2022-08-16T03:36:55.212Z,3.28
2022-08-16T03:39:24.511Z,3.28
2022-08-16T03:41:59.698Z,2.97
2022-08-16T03:44:44.184Z,3.03
2022-08-16T03:47:18.941Z,2.65
2022-08-16T03:49:51.641Z,3.10
2022-08-16T03:52:23.773Z,2.60
2022-08-16T03:54:59.244Z,2.70
2022-08-16T03:57:35.584Z,2.80
2022-08-16T04:00:20.648Z,3.08
2022-08-16T04:03:10.157Z,2.50
2022-08-16T04:05:44.311Z,3.15
2022-08-16T04:08:23.308Z,2.58
2022-08-16T04:10:52.844Z,3.22
2022-08-16T04:14:00.776Z,2.85
2022-08-16T04:16:27.436Z,2.88
2022-08-16T04:19:02.543Z,2.85
2022-08-16T04:21:31.002Z,3.40
2022-08-16T04:24:01.093Z,2.67
2022-08-16T04:26:31.231Z,2.67
2022-08-16T04:29:16.951Z,2.47
2022-08-16T04:31:56.186Z,2.90
2022-08-16T04:34:26.806Z,2.50
2022-08-16T04:36:56.785Z,2.53
2022-08-16T04:39:46.167Z,3.00
2022-08-16T04:42:17.377Z,2.50
2022-08-16T04:44:53.434Z,2.70
2022-08-16T04:47:25.171Z,2.42
2022-08-16T04:50:03.323Z,2.63
2022-08-16T04:52:35.799Z,2.75
2022-08-16T04:55:06.112Z,2.58
2022-08-16T04:57:32.948Z,1.85
2022-08-16T04:59:59.549Z,2.45
2022-08-16T05:02:54.768Z,2.40
2022-08-16T05:05:32.966Z,2.60
2022-08-16T05:08:28.450Z,2.63
2022-08-16T05:10:59.968Z,2.17
2022-08-16T05:13:41.198Z,2.63
2022-08-16T05:16:20.344Z,2.25
2022-08-16T05:18:49.678Z,2.60
2022-08-16T05:21:16.537Z,2.15
2022-08-16T05:23:51.794Z,2.70
2022-08-16T05:26:24.907Z,2.25
2022-08-16T05:28:57.281Z,1.83
2022-08-16T05:31:29.236Z,2.15
2022-08-16T05:33:56.935Z,2.22
2022-08-16T05:36:23.455Z,2.15
2022-08-16T05:39:00.993Z,2.40
2022-08-16T05:41:31.249Z,2.38
2022-08-16T05:44:00.312Z,2.78
2022-08-16T05:46:32.426Z,2.95
2022-08-16T05:49:09.133Z,2.70
2022-08-16T05:51:40.841Z,2.53
2022-08-16T05:54:17.323Z,2.47
2022-08-16T05:56:56.142Z,2.13
2022-08-16T05:59:23.395Z,2.05
2022-08-16T06:01:51.783Z,2.25
2022-08-16T06:04:36.128Z,2.70
2022-08-16T06:07:08.226Z,2.72
2022-08-16T06:09:42.800Z,2.67
2022-08-16T06:12:27.218Z,2.25
2022-08-16T06:14:59.642Z,2.15
2022-08-16T06:17:42.532Z,2.50
2022-08-16T06:20:14.279Z,2.58
2022-08-16T06:22:40.789Z,2.63
2022-08-16T06:25:15.276Z,2.22
2022-08-16T06:27:42.198Z,2.38
2022-08-16T06:30:24.368Z,2.10
2022-08-16T06:32:58.265Z,2.42
2022-08-16T06:35:26.982Z,2.80
2022-08-16T06:38:07.101Z,2.33
2022-08-16T06:40:55.943Z,2.33
2022-08-16T06:43:27.732Z,1.90
2022-08-16T06:45:57.164Z,2.38
2022-08-16T06:48:32.921Z,2.10
2022-08-16T06:51:01.591Z,2.00
2022-08-16T06:53:29.733Z,1.95
2022-08-16T06:56:00.809Z,2.00
2022-08-16T06:58:33.912Z,1.90
2022-08-16T07:01:04.096Z,1.63
2022-08-16T07:03:55.402Z,2.17
2022-08-16T07:06:26.721Z,1.80
2022-08-16T07:08:54.188Z,2.13
2022-08-16T07:11:20.815Z,2.00
2022-08-16T07:14:25.028Z,1.88
2022-08-16T07:16:53.917Z,1.75
2022-08-16T07:19:22.741Z,2.00
2022-08-16T07:22:38.675Z,1.90
2022-08-16T07:24:55.616Z,1.95
2022-08-16T07:27:25.047Z,2.22
2022-08-16T07:29:55.589Z,1.70
2022-08-16T07:32:29.735Z,1.95
2022-08-16T07:34:58.320Z,2.03
2022-08-16T07:37:24.844Z,2.00
2022-08-16T07:39:51.733Z,2.30
2022-08-16T07:42:34.796Z,2.22
2022-08-16T07:45:02.080Z,2.08
2022-08-16T07:47:31.969Z,2.13
2022-08-16T07:49:59.971Z,1.80
2022-08-16T07:52:32.256Z,2.05
2022-08-16T07:54:58.833Z,1.73
2022-08-16T07:57:25.546Z,1.80
2022-08-16T07:59:53.094Z,1.58
2022-08-16T08:02:20.584Z,1.98
2022-08-16T08:04:48.142Z,2.20
2022-08-16T08:07:16.112Z,1.98
2022-08-16T08:09:43.962Z,2.05
2022-08-16T08:12:31.978Z,2.50
2022-08-16T08:15:00.120Z,1.90
2022-08-16T08:17:43.271Z,2.20
2022-08-16T08:20:20.738Z,2.13
2022-08-16T08:23:01.554Z,2.33
2022-08-16T08:25:53.745Z,2.42
2022-08-16T08:28:17.382Z,1.90
2022-08-16T08:30:51.890Z,2.05
2022-08-16T08:33:28.509Z,2.63
2022-08-16T08:35:57.147Z,2.63
2022-08-16T08:38:45.100Z,3.13
2022-08-16T08:41:13.328Z,2.33
2022-08-16T08:43:41.941Z,2.30
2022-08-16T08:46:17.796Z,2.47
2022-08-16T08:48:59.743Z,2.22
2022-08-16T08:51:31.949Z,1.90
2022-08-16T08:54:07.015Z,2.00
2022-08-16T08:56:37.683Z,2.47
2022-08-16T08:59:16.471Z,2.28
2022-08-16T09:01:56.310Z,2.22
2022-08-16T09:04:28.153Z,2.80
2022-08-16T09:06:58.519Z,2.63
2022-08-16T09:09:33.457Z,2.45
2022-08-16T09:12:06.391Z,2.15
2022-08-16T09:14:35.334Z,2.47
2022-08-16T09:17:14.068Z,2.45
2022-08-16T09:19:57.186Z,2.30
2022-08-16T09:22:29.548Z,2.28
2022-08-16T09:25:11.233Z,2.08
2022-08-16T09:27:56.821Z,2.30
2022-08-16T09:30:34.578Z,2.00
2022-08-16T09:33:09.888Z,2.17
2022-08-16T09:41:04.129Z,2.67
2022-08-16T09:43:59.159Z,2.20
2022-08-16T09:46:45.288Z,2.75
2022-08-16T09:49:12.127Z,2.13
2022-08-16T09:51:41.109Z,2.47
2022-08-16T09:54:10.667Z,2.20
2022-08-16T09:56:52.430Z,1.90
2022-08-16T09:59:21.132Z,2.63
2022-08-16T10:01:51.805Z,2.33
2022-08-16T10:04:30.231Z,2.25
2022-08-16T10:07:15.098Z,2.30
2022-08-16T10:09:54.640Z,2.22
2022-08-16T10:12:42.943Z,1.92
2022-08-16T10:15:15.198Z,2.40
2022-08-16T10:17:45.170Z,2.78
2022-08-16T10:20:29.251Z,3.00
2022-08-16T10:23:03.526Z,2.80
2022-08-16T10:27:16.667Z,2.25
2022-08-16T10:28:32.369Z,2.40
2022-08-16T10:31:06.266Z,2.38
2022-08-16T10:33:34.339Z,2.00
2022-08-16T10:36:05.469Z,2.35
2022-08-16T10:38:37.180Z,2.55
2022-08-16T10:41:07.638Z,2.53
2022-08-16T10:43:35.997Z,2.42
2022-08-16T10:46:03.845Z,2.60
2022-08-16T10:48:50.260Z,2.80
2022-08-16T10:51:17.074Z,3.22
2022-08-16T10:53:46.765Z,2.92
2022-08-16T10:56:52.435Z,2.95
2022-08-16T11:11:04.513Z,3.00
2022-08-16T11:13:58.310Z,2.90
2022-08-16T11:15:55.289Z,3.05
2022-08-16T11:19:03.980Z,2.58
2022-08-16T11:21:29.119Z,2.63
2022-08-16T11:23:59.627Z,2.80
2022-08-16T11:26:29.610Z,2.60
2022-08-16T11:29:14.060Z,2.70
2022-08-16T11:31:45.671Z,2.58
2022-08-16T11:34:16.502Z,2.20
2022-08-16T11:36:59.755Z,2.47
2022-08-16T11:39:31.889Z,2.17
2022-08-16T11:42:00.679Z,2.60
2022-08-16T11:44:52.326Z,2.65
2022-08-16T11:47:17.681Z,2.67
2022-08-16T11:49:44.104Z,2.70
2022-08-16T11:52:12.980Z,2.60
2022-08-16T11:54:47.617Z,2.95
2022-08-16T11:57:25.991Z,2.83
2022-08-16T11:59:55.386Z,2.58
2022-08-16T12:02:31.043Z,2.25
2022-08-16T12:05:03.947Z,2.20
2022-08-16T12:07:34.571Z,2.60
2022-08-16T12:10:04.285Z,2.15
2022-08-16T12:12:30.715Z,3.13
2022-08-16T12:15:00.311Z,3.10
2022-08-16T12:17:32.322Z,2.15
2022-08-16T12:20:19.322Z,3.10
2022-08-16T12:22:46.293Z,2.40
2022-08-16T12:25:16.656Z,2.22
2022-08-16T12:27:47.685Z,2.67
2022-08-16T12:30:30.288Z,2.65
2022-08-16T12:32:58.857Z,2.05
2022-08-16T12:35:27.091Z,2.30
2022-08-16T12:37:57.079Z,2.42
2022-08-16T12:40:28.284Z,2.40
2022-08-16T12:42:58.746Z,2.45
2022-08-16T12:45:30.202Z,2.70
2022-08-16T12:48:33.606Z,2.25
2022-08-16T12:51:02.206Z,2.20
2022-08-16T12:53:31.999Z,2.17
2022-08-16T12:56:01.556Z,2.50
2022-08-16T12:58:48.788Z,2.35
2022-08-16T13:01:22.801Z,2.33
2022-08-16T13:03:55.833Z,2.13
2022-08-16T13:06:36.462Z,2.78
2022-08-16T13:09:20.058Z,2.42
2022-08-16T13:12:00.051Z,1.90
2022-08-16T13:14:36.165Z,2.50
2022-08-16T13:17:07.920Z,2.20
2022-08-16T13:20:06.469Z,2.80
2022-08-16T13:22:24.747Z,2.80
2022-08-16T13:24:54.775Z,2.38
2022-08-16T13:27:34.965Z,2.25
2022-08-16T13:30:36.311Z,2.63
2022-08-16T13:33:11.348Z,2.00
2022-08-16T13:35:42.931Z,2.03
2022-08-16T13:38:24.352Z,2.35
2022-08-16T13:40:56.121Z,1.95
2022-08-16T13:43:23.380Z,2.13
2022-08-16T13:45:55.336Z,2.38
2022-08-16T13:48:25.264Z,2.40
2022-08-16T13:50:55.075Z,2.72
2022-08-16T13:53:23.525Z,2.63
2022-08-16T13:55:57.850Z,2.35
2022-08-16T13:58:36.480Z,2.20
2022-08-16T14:01:11.650Z,1.90
2022-08-16T14:03:39.631Z,2.08
2022-08-16T14:06:10.831Z,2.47
2022-08-16T14:08:42.445Z,2.30
2022-08-16T14:11:12.470Z,1.90
2022-08-16T14:13:40.948Z,1.98
2022-08-16T14:16:12.489Z,2.30
2022-08-16T14:18:55.629Z,2.22
2022-08-16T14:21:23.917Z,2.53
2022-08-16T14:23:52.651Z,2.72
2022-08-16T14:26:21.037Z,2.10
2022-08-16T14:28:50.718Z,2.63
2022-08-16T14:31:20.277Z,2.30
2022-08-16T14:33:46.946Z,2.15
2022-08-16T14:36:18.830Z,1.90
2022-08-16T14:38:57.880Z,1.70
2022-08-16T14:41:24.852Z,1.90
2022-08-16T14:43:51.248Z,2.05
2022-08-16T14:46:20.275Z,1.83
2022-08-16T14:48:46.701Z,1.60
2022-08-16T14:51:16.049Z,1.77
2022-08-16T14:53:45.284Z,2.03
2022-08-16T14:56:17.397Z,1.88
2022-08-16T14:59:02.983Z,2.00
2022-08-16T15:01:57.785Z,2.33
2022-08-16T15:04:39.679Z,2.03
2022-08-16T15:07:03.339Z,2.10
2022-08-16T15:09:34.486Z,1.75
2022-08-16T15:12:26.327Z,1.83
2022-08-16T15:14:56.989Z,1.88
2022-08-16T15:17:27.708Z,2.10
2022-08-16T15:20:06.452Z,1.73
2022-08-16T15:22:38.479Z,1.50
2022-08-16T15:25:09.625Z,1.05
2022-08-16T15:27:41.815Z,2.00
2022-08-16T15:30:59.525Z,2.60
2022-08-16T15:33:02.235Z,2.40
2022-08-16T15:35:29.866Z,2.70
2022-08-16T15:37:56.845Z,2.45
2022-08-16T15:40:35.190Z,2.70
2022-08-16T15:43:08.836Z,2.38
2022-08-16T15:45:56.484Z,2.53
2022-08-16T15:48:28.491Z,2.50
2022-08-16T15:50:58.089Z,2.45
2022-08-16T15:53:30.715Z,2.33
2022-08-16T15:55:58.982Z,2.35
2022-08-16T15:58:35.167Z,2.90
2022-08-16T16:01:10.090Z,3.00
2022-08-16T16:03:36.638Z,2.40
2022-08-16T16:06:08.398Z,2.70
2022-08-16T16:08:41.565Z,2.88
2022-08-16T16:11:08.432Z,2.83
2022-08-16T16:13:37.548Z,2.75
2022-08-16T16:16:16.357Z,2.80
2022-08-16T16:18:49.305Z,3.20
2022-08-16T16:21:20.630Z,2.83
2022-08-16T16:23:57.902Z,2.63
2022-08-16T16:26:28.449Z,3.00
2022-08-16T16:29:08.551Z,2.80
2022-08-16T16:31:41.799Z,2.72
2022-08-16T16:34:13.292Z,2.40
2022-08-16T16:36:43.700Z,2.45
2022-08-16T16:39:14.953Z,2.63
2022-08-16T16:41:43.762Z,2.55
2022-08-16T16:44:10.925Z,2.70
2022-08-16T16:46:56.682Z,2.90
2022-08-16T16:49:26.439Z,2.92
2022-08-16T16:51:52.985Z,2.70
2022-08-16T16:54:28.970Z,3.05
2022-08-16T16:56:59.508Z,2.72
2022-08-16T16:59:33.680Z,2.92
2022-08-16T17:02:38.467Z,2.97
2022-08-16T17:04:49.684Z,2.85
2022-08-16T17:07:24.104Z,2.70
2022-08-16T17:09:51.216Z,2.80
2022-08-16T17:12:24.556Z,2.70
2022-08-16T17:15:10.432Z,2.58
2022-08-16T17:18:00.470Z,3.08
2022-08-16T17:20:26.736Z,2.90
2022-08-16T17:22:54.718Z,2.70
2022-08-16T17:25:24.976Z,2.90
2022-08-16T17:27:52.061Z,3.25
2022-08-16T17:30:29.610Z,3.20
2022-08-16T17:33:20.829Z,3.22
2022-08-16T17:35:54.943Z,3.10
2022-08-16T17:38:39.343Z,2.65
2022-08-16T17:41:10.790Z,2.70
2022-08-16T17:43:44.538Z,2.67
2022-08-16T17:46:40.950Z,3.10
2022-08-16T17:48:58.751Z,3.28
2022-08-16T17:51:27.517Z,2.60
2022-08-16T17:53:56.798Z,2.33
2022-08-16T17:56:25.602Z,2.60
2022-08-16T17:58:52.245Z,2.95
2022-08-16T18:01:21.737Z,2.65
2022-08-16T18:04:09.050Z,2.90
2022-08-16T18:06:35.507Z,2.97
2022-08-16T18:09:03.528Z,2.70
2022-08-16T18:11:32.866Z,2.80
2022-08-16T18:13:59.459Z,2.90
2022-08-16T18:16:25.894Z,3.00
2022-08-16T18:18:52.600Z,2.80
2022-08-16T18:21:37.603Z,2.70
2022-08-16T18:24:04.611Z,2.53
2022-08-16T18:26:33.546Z,2.47
2022-08-16T18:29:00.012Z,2.60
2022-08-16T18:31:28.826Z,2.20
2022-08-16T18:33:55.920Z,2.33
2022-08-16T18:36:23.201Z,2.72
2022-08-16T18:38:50.110Z,2.90
2022-08-16T18:41:19.347Z,2.78
2022-08-16T18:43:54.175Z,2.20
2022-08-16T18:46:36.961Z,1.90
2022-08-16T18:49:05.591Z,1.73
2022-08-16T18:51:35.478Z,2.08
2022-08-16T18:54:04.974Z,1.95
2022-08-16T18:56:53.723Z,2.28
2022-08-16T18:59:20.357Z,2.15
2022-08-16T19:01:47.467Z,1.80
2022-08-16T19:04:56.054Z,2.38
2022-08-16T19:07:06.297Z,2.20
2022-08-16T19:09:33.157Z,1.92
2022-08-16T19:12:06.064Z,2.30
2022-08-16T19:14:32.493Z,2.03
2022-08-16T19:17:01.281Z,2.40
2022-08-16T19:19:27.709Z,2.00
2022-08-16T19:21:56.293Z,1.77
2022-08-16T19:24:22.699Z,2.67
2022-08-16T19:26:55.517Z,2.05
2022-08-16T19:29:24.408Z,1.75
2022-08-16T19:31:50.877Z,2.38
2022-08-16T19:34:17.976Z,2.17
2022-08-16T19:36:47.389Z,2.17
2022-08-16T19:39:15.866Z,2.20
2022-08-16T19:41:52.959Z,2.33
2022-08-16T19:44:24.417Z,2.50
2022-08-16T19:46:53.292Z,2.33
2022-08-16T19:49:21.885Z,2.20
2022-08-16T19:51:48.320Z,2.15
2022-08-16T19:54:17.837Z,2.20
2022-08-16T19:56:44.248Z,2.40
2022-08-16T19:59:20.502Z,2.40
2022-08-16T20:01:50.927Z,2.50
2022-08-16T20:04:23.341Z,1.92
2022-08-16T20:06:50.595Z,2.28
2022-08-16T20:09:21.364Z,2.08
2022-08-16T20:11:48.578Z,2.05
2022-08-16T20:14:19.228Z,2.15
2022-08-16T20:16:51.534Z,2.30
2022-08-16T20:19:21.026Z,2.55
2022-08-16T20:21:47.537Z,2.10
2022-08-16T20:24:32.844Z,2.10
2022-08-16T20:27:03.455Z,2.85
2022-08-16T20:29:29.948Z,2.53
2022-08-16T20:31:56.439Z,2.53
2022-08-16T20:34:22.915Z,2.50
2022-08-16T20:36:49.375Z,2.22
2022-08-16T20:39:15.850Z,2.35
2022-08-16T20:41:45.932Z,1.90
2022-08-16T20:44:12.735Z,1.90
2022-08-16T20:46:39.885Z,2.20
2022-08-16T20:49:10.194Z,2.13
2022-08-16T20:51:46.491Z,2.30
2022-08-16T20:54:17.666Z,2.40
2022-08-16T20:56:44.117Z,2.38
2022-08-16T20:59:12.817Z,2.25
2022-08-16T21:01:46.577Z,2.15
2022-08-16T21:04:18.952Z,2.40
2022-08-16T21:06:54.266Z,2.30
2022-08-16T21:09:28.782Z,2.13
2022-08-16T21:11:57.056Z,2.45
2022-08-16T21:14:26.610Z,2.85
2022-08-16T21:16:53.221Z,2.47
2022-08-16T21:19:20.997Z,2.40
2022-08-16T21:21:50.688Z,1.80
2022-08-16T21:24:17.210Z,2.20
2022-08-16T21:26:55.163Z,2.28
2022-08-16T21:29:26.183Z,2.53
2022-08-16T21:32:07.534Z,2.13
2022-08-16T21:34:34.031Z,2.50
2022-08-16T21:37:00.568Z,2.22
2022-08-16T21:39:27.130Z,2.40
2022-08-16T21:41:53.584Z,2.08
2022-08-16T21:44:22.453Z,2.40
2022-08-16T21:46:59.019Z,2.85
2022-08-16T21:49:25.451Z,2.72
2022-08-16T21:51:54.004Z,2.42
2022-08-16T21:54:20.436Z,2.50
2022-08-16T21:56:46.882Z,2.70
2022-08-16T21:59:15.721Z,2.70
2022-08-16T22:01:42.946Z,2.53
2022-08-16T22:04:38.045Z,2.42
2022-08-16T22:06:59.848Z,2.20
2022-08-16T22:09:26.508Z,2.72
2022-08-16T22:11:53.045Z,2.33
2022-08-16T22:14:19.454Z,2.60
2022-08-16T22:16:48.021Z,2.60
2022-08-16T22:19:14.682Z,2.80
2022-08-16T22:21:44.123Z,2.70
2022-08-16T22:24:12.881Z,2.70
2022-08-16T22:26:43.127Z,2.80
2022-08-16T22:29:14.020Z,2.85
2022-08-16T22:31:41.294Z,2.88
2022-08-16T22:34:08.838Z,3.00
2022-08-16T22:36:35.485Z,2.70
2022-08-16T22:39:07.282Z,2.72
2022-08-16T22:41:35.323Z,2.58
2022-08-16T22:44:05.006Z,3.05
2022-08-16T22:46:33.158Z,2.95
2022-08-16T22:48:59.597Z,2.60
2022-08-16T22:51:29.168Z,3.00
2022-08-16T22:53:56.258Z,3.03
2022-08-16T22:56:26.201Z,2.50
2022-08-16T22:58:52.967Z,2.83
2022-08-16T23:01:24.270Z,2.55
2022-08-16T23:03:51.214Z,3.00
2022-08-16T23:06:19.894Z,3.20
2022-08-16T23:08:51.435Z,2.72
2022-08-16T23:11:22.431Z,2.90
2022-08-16T23:13:54.662Z,3.00
2022-08-16T23:16:33.796Z,2.80
2022-08-16T23:19:11.563Z,2.80
2022-08-16T23:21:44.194Z,3.22
2022-08-16T23:24:13.890Z,2.80
2022-08-16T23:26:45.798Z,2.50
2022-08-16T23:29:23.571Z,2.53
2022-08-16T23:31:53.317Z,2.97
2022-08-16T23:34:20.614Z,2.97
2022-08-16T23:36:47.019Z,3.47
2022-08-16T23:39:13.432Z,3.13
2022-08-16T23:41:40.433Z,3.15
2022-08-16T23:44:56.002Z,3.45
2022-08-16T23:46:53.573Z,2.85
2022-08-16T23:49:57.137Z,2.80
2022-08-16T23:52:12.399Z,3.20
2022-08-16T23:54:41.124Z,3.63
2022-08-16T23:57:10.089Z,3.30
2022-08-16T23:59:52.240Z,3.58
